createdAt,value
2023-05-21T00:00:01.192Z,0.112
2023-05-21T00:05:01.177Z,0.116
2023-05-21T00:10:13.723Z,0.117
2023-05-21T00:15:01.221Z,0.117
2023-05-21T00:20:01.247Z,0.113
2023-05-21T00:25:01.198Z,0.111
2023-05-21T00:30:01.267Z,0.149
2023-05-21T00:35:01.321Z,0.154
2023-05-21T00:40:09.201Z,0.155
2023-05-21T00:45:01.362Z,0.034
2023-05-21T00:50:01.427Z,0.084
2023-05-21T00:55:01.324Z,0.106
2023-05-21T01:00:01.386Z,0.108
2023-05-21T01:05:01.408Z,0.109
2023-05-21T01:10:13.508Z,0.134
2023-05-21T01:15:01.257Z,0.161
2023-05-21T01:20:01.308Z,0.185
2023-05-21T01:25:01.265Z,0.176
2023-05-21T01:30:01.492Z,0.137
2023-05-21T01:35:01.466Z,0.039
2023-05-21T01:40:09.848Z,0.073
2023-05-21T01:45:01.296Z,0.11
2023-05-21T01:50:01.305Z,0.116
2023-05-21T01:55:01.281Z,0.116
2023-05-21T02:00:01.316Z,0.14100000000000001
2023-05-21T02:05:01.309Z,0.165
2023-05-21T02:10:12.491Z,0.17
2023-05-21T02:15:01.361Z,0.159
2023-05-21T02:20:01.361Z,0.115
2023-05-21T02:25:01.348Z,0.063
2023-05-21T02:30:01.354Z,0.055
2023-05-21T02:35:01.351Z,0.11800000000000001
2023-05-21T02:40:09.927Z,0.121
2023-05-21T02:45:01.424Z,0.122
2023-05-21T02:50:01.348Z,0.168
2023-05-21T02:55:01.269Z,0.17300000000000001
2023-05-21T03:00:01.352Z,0.169
2023-05-21T03:05:01.450Z,0.125
2023-05-21T03:10:08.879Z,0.125
2023-05-21T03:15:01.446Z,20.966
2023-05-21T03:20:01.391Z,37.121
2023-05-21T03:25:01.381Z,42.545
2023-05-21T03:30:01.358Z,77.136
2023-05-21T03:35:01.394Z,107.70400000000001
2023-05-21T03:40:09.470Z,144.351
2023-05-21T03:45:01.409Z,176.55100000000002
2023-05-21T03:50:01.433Z,241.755
2023-05-21T03:55:01.458Z,311.981
2023-05-21T04:00:01.447Z,350.394
2023-05-21T04:05:01.556Z,368.841
2023-05-21T04:10:08.632Z,413.701
2023-05-21T04:15:01.585Z,431.46500000000003
2023-05-21T04:20:01.549Z,445.249
2023-05-21T04:25:01.531Z,477.891
2023-05-21T04:30:01.566Z,526.044
2023-05-21T04:35:01.658Z,574.285
2023-05-21T04:40:13.855Z,629.987
2023-05-21T04:45:01.634Z,698.979
2023-05-21T04:50:01.678Z,756.087
2023-05-21T04:55:01.405Z,816.35
2023-05-21T05:00:01.550Z,905.001
2023-05-21T05:05:01.653Z,985.9730000000001
2023-05-21T05:10:09.244Z,1014.118
2023-05-21T05:15:01.472Z,1053.464
2023-05-21T05:20:01.510Z,1104.919
2023-05-21T05:25:01.507Z,1095.02
2023-05-21T05:30:01.496Z,1069.045
2023-05-21T05:35:02.486Z,1101.118
2023-05-21T05:40:13.438Z,1147.574
2023-05-21T05:45:01.490Z,1064.143
2023-05-21T05:50:01.478Z,1043.606
2023-05-21T05:55:01.491Z,1123.97
2023-05-21T06:00:01.585Z,1265.2930000000001
2023-05-21T06:05:01.558Z,1446.969
2023-05-21T06:10:08.929Z,1636.906
2023-05-21T06:15:01.826Z,1833.568
2023-05-21T06:20:01.528Z,2054.006
2023-05-21T06:25:01.551Z,2207.827
2023-05-21T06:30:01.601Z,2718.293
2023-05-21T06:35:01.617Z,2474.632
2023-05-21T06:40:07.552Z,2323.857
2023-05-21T06:45:01.687Z,3092.821
2023-05-21T06:50:01.647Z,3810.339
2023-05-21T06:55:01.521Z,3641.013
2023-05-21T07:00:01.547Z,3899.169
2023-05-21T07:05:01.544Z,2779.735
2023-05-21T07:10:08.886Z,2420.717
2023-05-21T07:15:01.559Z,4375.6
2023-05-21T07:20:01.651Z,3802.756
2023-05-21T07:25:01.618Z,3640.37
2023-05-21T07:30:01.652Z,3315.233
2023-05-21T07:35:01.722Z,3666.222
2023-05-21T07:40:13.929Z,4419.777
2023-05-21T07:45:01.770Z,4812.973
2023-05-21T07:50:01.768Z,4630.126
2023-05-21T07:55:01.748Z,4074.5930000000003
2023-05-21T08:00:01.892Z,4542.8240000000005
2023-05-21T08:05:01.889Z,4201.063
2023-05-21T08:10:09.397Z,3295.246
2023-05-21T08:15:01.577Z,2748.786
2023-05-21T08:20:01.582Z,2980.081
2023-05-21T08:25:01.618Z,3217.976
2023-05-21T08:30:01.628Z,3626.779
2023-05-21T08:35:01.644Z,4347.375
2023-05-21T08:40:08.445Z,5171.829
2023-05-21T08:45:01.683Z,4498.045
2023-05-21T08:50:01.651Z,4213.207
2023-05-21T08:55:01.743Z,4073.2200000000003
2023-05-21T09:00:01.722Z,3748.405
2023-05-21T09:05:01.670Z,3105.631
2023-05-21T09:10:09.769Z,2416.219
2023-05-21T09:15:01.759Z,2315.065
2023-05-21T09:20:01.740Z,2250.411
2023-05-21T09:25:01.642Z,2110.382
2023-05-21T09:30:01.655Z,2234.1040000000003
2023-05-21T09:35:01.779Z,2592.317
2023-05-21T09:40:10.828Z,6078.401
2023-05-21T09:45:01.890Z,7976.894
2023-05-21T09:50:01.895Z,7945.269
2023-05-21T09:55:01.946Z,7748.1630000000005
2023-05-21T10:00:01.953Z,7615.759
2023-05-21T10:05:01.706Z,7666.113
2023-05-21T10:10:09.558Z,7730.646
2023-05-21T10:15:01.724Z,7934.262
2023-05-21T10:20:01.768Z,4736.995
2023-05-21T10:25:01.706Z,4385.763
2023-05-21T10:30:01.756Z,4079.3650000000002
2023-05-21T10:35:01.992Z,5133.38
2023-05-21T10:40:08.438Z,5545.08
2023-05-21T10:45:01.830Z,7502.322
2023-05-21T10:50:01.793Z,7662.863
2023-05-21T10:55:01.884Z,3891.5260000000003
2023-05-21T11:00:01.887Z,3822.4900000000002
2023-05-21T11:05:01.896Z,3846.3160000000003
2023-05-21T11:10:08.747Z,3607.706
2023-05-21T11:15:01.776Z,4205.455
2023-05-21T11:20:01.765Z,4455.156
2023-05-21T11:25:01.872Z,3587.859
2023-05-21T11:30:01.806Z,3634.38
2023-05-21T11:35:01.819Z,3884.746
2023-05-21T11:40:11.518Z,7550.242
2023-05-21T11:45:01.800Z,4606.813
2023-05-21T11:50:01.816Z,4127.35
2023-05-21T11:55:01.826Z,5117.822
2023-05-21T12:00:01.945Z,5173.881
2023-05-21T12:05:01.925Z,6225.466
2023-05-21T12:10:09.079Z,5176.857
2023-05-21T12:15:01.803Z,6668.752
2023-05-21T12:20:01.843Z,6919.281
2023-05-21T12:25:01.928Z,5842.591
2023-05-21T12:30:01.822Z,6415.049
2023-05-21T12:35:01.827Z,5983.249
2023-05-21T12:40:14.069Z,5094.434
2023-05-21T12:45:01.989Z,4015.893
2023-05-21T12:50:01.893Z,3379.489
2023-05-21T12:55:01.865Z,3433.059
2023-05-21T13:00:02.042Z,3924.286
2023-05-21T13:05:02.034Z,5570.811
2023-05-21T13:10:09.572Z,4406.27
2023-05-21T13:15:01.922Z,4271.647
2023-05-21T13:20:01.967Z,4636.821
2023-05-21T13:25:01.961Z,5082.276
2023-05-21T13:30:01.881Z,5047.568
2023-05-21T13:35:01.892Z,4077.102
2023-05-21T13:40:08.233Z,4497.203
2023-05-21T13:45:01.941Z,5877.356
2023-05-21T13:50:01.945Z,6097.378
2023-05-21T13:55:01.942Z,4887.599
2023-05-21T14:00:02.097Z,4615.271
2023-05-21T14:05:02.134Z,4611.198
2023-05-21T14:10:09.917Z,4203.219
2023-05-21T14:15:01.990Z,4450.539
2023-05-21T14:20:01.972Z,3407.797
2023-05-21T14:25:01.962Z,3119.945
2023-05-21T14:30:01.951Z,3081.695
2023-05-21T14:35:01.932Z,3123.346
2023-05-21T14:40:09.765Z,2476.6040000000003
2023-05-21T14:45:17.312Z,2141.387
2023-05-21T14:50:01.990Z,2029.068
2023-05-21T14:55:02.176Z,1975.952
2023-05-21T15:00:02.060Z,1944.275
2023-05-21T15:05:02.141Z,1940.5230000000001
2023-05-21T15:10:10.331Z,1984.333
2023-05-21T15:15:01.963Z,2119.568
2023-05-21T15:20:02.014Z,2017.688
2023-05-21T15:25:01.988Z,1854.5900000000001
2023-05-21T15:30:02.077Z,1849.931
2023-05-21T15:35:02.048Z,1807.941
2023-05-21T15:40:11.479Z,1694.8310000000001
2023-05-21T15:45:02.026Z,1629.248
2023-05-21T15:50:02.203Z,1575.101
2023-05-21T15:55:02.198Z,1555.785
2023-05-21T16:00:02.047Z,1532.986
2023-05-21T16:05:02.018Z,1552.705
2023-05-21T16:10:11.101Z,1808.8410000000001
2023-05-21T16:15:01.992Z,1650.057
2023-05-21T16:20:02.072Z,1348.442
2023-05-21T16:25:01.997Z,1254.449
2023-05-21T16:30:02.054Z,1208.618
2023-05-21T16:35:02.113Z,1374.094
2023-05-21T16:40:08.244Z,1781.9
2023-05-21T16:45:02.278Z,1599.537
2023-05-21T16:50:02.284Z,1059.391
2023-05-21T16:55:02.167Z,932.905
2023-05-21T17:00:02.047Z,844.02
2023-05-21T17:05:02.131Z,716.898
2023-05-21T17:10:10.205Z,667.315
2023-05-21T17:15:02.101Z,652.836
2023-05-21T17:20:02.050Z,634.609
2023-05-21T17:25:02.147Z,572.95
2023-05-21T17:30:02.310Z,578.01
2023-05-21T17:35:02.124Z,579.217
2023-05-21T17:40:09.203Z,542.41
2023-05-21T17:45:02.134Z,432.598
2023-05-21T17:50:02.152Z,410.718
2023-05-21T17:55:02.146Z,382.746
2023-05-21T18:00:02.133Z,349.451
2023-05-21T18:05:02.151Z,307.523
2023-05-21T18:10:09.412Z,269.472
2023-05-21T18:15:02.156Z,244.895
2023-05-21T18:20:02.221Z,220.644
2023-05-21T18:25:02.302Z,192
2023-05-21T18:30:02.236Z,152.354
2023-05-21T18:35:02.177Z,114.036
2023-05-21T18:40:10.115Z,83.868
2023-05-21T18:45:02.223Z,58.841
2023-05-21T18:50:02.191Z,33.768
2023-05-21T18:55:02.163Z,37.800000000000004
2023-05-21T19:00:02.114Z,29.026
2023-05-21T19:05:02.209Z,17.611
2023-05-21T19:10:09.063Z,15.72
2023-05-21T19:15:02.259Z,0.594
2023-05-21T19:20:02.456Z,0.154
2023-05-21T19:25:02.250Z,0.149
2023-05-21T19:30:02.188Z,0.112
2023-05-21T19:35:02.206Z,0.115
2023-05-21T19:40:13.009Z,0.11
2023-05-21T19:45:02.306Z,0.10200000000000001
2023-05-21T19:50:02.257Z,0.018000000000000002
2023-05-21T19:55:02.322Z,0.08700000000000001
2023-05-21T20:00:02.234Z,0.137
2023-05-21T20:05:02.228Z,0.12
2023-05-21T20:10:09.352Z,0.11800000000000001
2023-05-21T20:15:02.402Z,0.08700000000000001
2023-05-21T20:20:02.359Z,0
2023-05-21T20:25:02.401Z,0
2023-05-21T20:30:02.320Z,0.051000000000000004
2023-05-21T20:35:03.609Z,0.015
2023-05-21T20:40:15.035Z,0.08600000000000001
2023-05-21T20:45:02.284Z,0.125
2023-05-21T20:50:02.263Z,0.147
2023-05-21T20:55:02.300Z,0.14400000000000002
2023-05-21T21:00:02.235Z,0.113
2023-05-21T21:05:02.221Z,0.112
2023-05-21T21:10:08.780Z,0.107
2023-05-21T21:15:02.275Z,0.10300000000000001
2023-05-21T21:20:02.399Z,0.014
2023-05-21T21:25:02.490Z,0.095
2023-05-21T21:30:02.473Z,0.126
2023-05-21T21:35:02.244Z,0.155
2023-05-21T21:40:11.048Z,0.154
2023-05-21T21:45:02.383Z,0.145
2023-05-21T21:50:02.326Z,0.096
2023-05-21T21:55:02.249Z,0.09
2023-05-21T22:00:02.638Z,0.092
2023-05-21T22:05:02.475Z,0.012
2023-05-21T22:10:09.386Z,0.08
2023-05-21T22:15:02.295Z,0.094
2023-05-21T22:20:02.360Z,0.146
2023-05-21T22:25:02.400Z,0.146
2023-05-21T22:30:02.440Z,0.146
2023-05-21T22:35:02.523Z,0.106
2023-05-21T22:40:10.520Z,0.097
2023-05-21T22:45:02.568Z,0.10400000000000001
2023-05-21T22:50:02.365Z,0.007
2023-05-21T22:55:02.370Z,0.106
2023-05-21T23:00:02.344Z,0.108
2023-05-21T23:05:02.353Z,0.138
2023-05-21T23:10:09.815Z,0.158
2023-05-21T23:15:02.452Z,0.157
2023-05-21T23:20:02.372Z,0.133
2023-05-21T23:25:02.448Z,0.109
2023-05-21T23:30:02.430Z,0.106
2023-05-21T23:35:02.389Z,0.006
2023-05-21T23:40:14.710Z,0.097
2023-05-21T23:45:02.608Z,0.098
2023-05-21T23:50:02.515Z,0.108
2023-05-21T23:55:02.530Z,0.14100000000000001
